sensor_id;sensor_type;location;lat;lon;timestamp;temperature;humidity
80695;DHT22;70059;42.702;23.312;2023-10-13T00:01:59;14.00;61.60
80695;DHT22;70059;42.702;23.312;2023-10-13T00:04:28;13.90;61.80
80695;DHT22;70059;42.702;23.312;2023-10-13T00:06:55;13.90;61.90
80695;DHT22;70059;42.702;23.312;2023-10-13T00:11:55;13.90;62.30
80695;DHT22;70059;42.702;23.312;2023-10-13T00:14:22;13.90;61.60
80695;DHT22;70059;42.702;23.312;2023-10-13T00:16:48;13.90;62.20
80695;DHT22;70059;42.702;23.312;2023-10-13T00:19:37;13.80;62.00
80695;DHT22;70059;42.702;23.312;2023-10-13T00:22:24;13.80;62.50
80695;DHT22;70059;42.702;23.312;2023-10-13T00:24:50;13.70;62.30
80695;DHT22;70059;42.702;23.312;2023-10-13T00:27:28;13.70;62.20
80695;DHT22;70059;42.702;23.312;2023-10-13T00:30:07;13.60;62.20
80695;DHT22;70059;42.702;23.312;2023-10-13T00:32:50;13.60;62.20
80695;DHT22;70059;42.702;23.312;2023-10-13T00:35:23;13.60;62.30
80695;DHT22;70059;42.702;23.312;2023-10-13T00:38:04;13.60;63.30
80695;DHT22;70059;42.702;23.312;2023-10-13T00:40:48;13.60;62.00
80695;DHT22;70059;42.702;23.312;2023-10-13T00:43:18;13.40;62.00
80695;DHT22;70059;42.702;23.312;2023-10-13T00:45:45;13.40;62.40
80695;DHT22;70059;42.702;23.312;2023-10-13T00:48:29;13.40;62.50
80695;DHT22;70059;42.702;23.312;2023-10-13T00:51:08;13.50;62.30
80695;DHT22;70059;42.702;23.312;2023-10-13T00:53:38;13.40;62.60
80695;DHT22;70059;42.702;23.312;2023-10-13T00:56:13;13.40;62.80
80695;DHT22;70059;42.702;23.312;2023-10-13T00:58:46;13.40;62.30
80695;DHT22;70059;42.702;23.312;2023-10-13T01:01:12;13.40;62.70
80695;DHT22;70059;42.702;23.312;2023-10-13T01:03:48;13.30;63.00
80695;DHT22;70059;42.702;23.312;2023-10-13T01:06:18;13.30;63.10
80695;DHT22;70059;42.702;23.312;2023-10-13T01:08:48;13.30;63.10
80695;DHT22;70059;42.702;23.312;2023-10-13T01:11:19;13.30;62.70
80695;DHT22;70059;42.702;23.312;2023-10-13T01:13:49;13.20;63.40
80695;DHT22;70059;42.702;23.312;2023-10-13T01:16:17;13.30;63.30
80695;DHT22;70059;42.702;23.312;2023-10-13T01:18:46;13.30;63.80
80695;DHT22;70059;42.702;23.312;2023-10-13T01:21:16;13.30;63.10
80695;DHT22;70059;42.702;23.312;2023-10-13T01:23:45;13.30;63.20
80695;DHT22;70059;42.702;23.312;2023-10-13T01:26:13;13.20;63.40
80695;DHT22;70059;42.702;23.312;2023-10-13T01:28:46;13.20;63.40
80695;DHT22;70059;42.702;23.312;2023-10-13T01:31:13;13.30;63.30
80695;DHT22;70059;42.702;23.312;2023-10-13T01:33:50;13.30;63.60
80695;DHT22;70059;42.702;23.312;2023-10-13T01:36:22;13.30;63.20
80695;DHT22;70059;42.702;23.312;2023-10-13T01:38:49;13.20;63.30
80695;DHT22;70059;42.702;23.312;2023-10-13T01:41:15;13.20;63.00
80695;DHT22;70059;42.702;23.312;2023-10-13T01:43:41;13.20;63.20
80695;DHT22;70059;42.702;23.312;2023-10-13T01:46:07;13.10;65.00
80695;DHT22;70059;42.702;23.312;2023-10-13T01:48:34;13.10;64.10
80695;DHT22;70059;42.702;23.312;2023-10-13T01:51:04;13.00;65.30
80695;DHT22;70059;42.702;23.312;2023-10-13T01:53:31;13.10;64.40
80695;DHT22;70059;42.702;23.312;2023-10-13T01:55:57;13.10;64.10
80695;DHT22;70059;42.702;23.312;2023-10-13T01:58:23;13.00;64.10
80695;DHT22;70059;42.702;23.312;2023-10-13T02:00:51;12.90;64.90
80695;DHT22;70059;42.702;23.312;2023-10-13T02:03:17;12.90;64.80
80695;DHT22;70059;42.702;23.312;2023-10-13T02:05:44;12.90;64.60
80695;DHT22;70059;42.702;23.312;2023-10-13T02:08:20;12.90;64.50
80695;DHT22;70059;42.702;23.312;2023-10-13T02:10:54;13.00;64.70
80695;DHT22;70059;42.702;23.312;2023-10-13T02:13:21;13.00;64.60
80695;DHT22;70059;42.702;23.312;2023-10-13T02:15:52;12.90;64.60
80695;DHT22;70059;42.702;23.312;2023-10-13T02:18:20;12.90;64.60
80695;DHT22;70059;42.702;23.312;2023-10-13T02:21:11;13.00;64.40
80695;DHT22;70059;42.702;23.312;2023-10-13T02:23:41;12.90;64.60
80695;DHT22;70059;42.702;23.312;2023-10-13T02:26:29;12.90;64.90
80695;DHT22;70059;42.702;23.312;2023-10-13T02:29:03;12.90;65.00
80695;DHT22;70059;42.702;23.312;2023-10-13T02:31:34;12.80;64.70
80695;DHT22;70059;42.702;23.312;2023-10-13T02:34:00;12.90;65.20
80695;DHT22;70059;42.702;23.312;2023-10-13T02:36:26;12.90;64.80
80695;DHT22;70059;42.702;23.312;2023-10-13T02:39:13;12.80;64.70
80695;DHT22;70059;42.702;23.312;2023-10-13T02:41:39;12.80;65.20
80695;DHT22;70059;42.702;23.312;2023-10-13T02:44:07;12.80;65.30
80695;DHT22;70059;42.702;23.312;2023-10-13T02:46:35;12.80;65.10
80695;DHT22;70059;42.702;23.312;2023-10-13T02:49:02;12.70;64.60
80695;DHT22;70059;42.702;23.312;2023-10-13T02:51:36;12.70;64.40
80695;DHT22;70059;42.702;23.312;2023-10-13T02:54:03;12.70;64.30
80695;DHT22;70059;42.702;23.312;2023-10-13T02:56:34;12.70;64.20
80695;DHT22;70059;42.702;23.312;2023-10-13T02:59:01;12.60;64.20
80695;DHT22;70059;42.702;23.312;2023-10-13T03:01:33;12.50;64.20
80695;DHT22;70059;42.702;23.312;2023-10-13T03:04:03;12.60;64.40
80695;DHT22;70059;42.702;23.312;2023-10-13T03:06:29;12.60;64.10
80695;DHT22;70059;42.702;23.312;2023-10-13T03:09:06;12.50;64.10
80695;DHT22;70059;42.702;23.312;2023-10-13T03:11:48;12.50;64.10
80695;DHT22;70059;42.702;23.312;2023-10-13T03:14:15;12.40;64.60
80695;DHT22;70059;42.702;23.312;2023-10-13T03:17:01;12.40;65.50
80695;DHT22;70059;42.702;23.312;2023-10-13T03:19:43;12.40;65.80
80695;DHT22;70059;42.702;23.312;2023-10-13T03:22:15;12.40;66.00
80695;DHT22;70059;42.702;23.312;2023-10-13T03:24:45;12.40;66.90
80695;DHT22;70059;42.702;23.312;2023-10-13T03:27:17;12.40;67.60
80695;DHT22;70059;42.702;23.312;2023-10-13T03:29:48;12.40;67.40
80695;DHT22;70059;42.702;23.312;2023-10-13T03:32:20;12.30;67.60
80695;DHT22;70059;42.702;23.312;2023-10-13T03:34:46;12.40;66.60
80695;DHT22;70059;42.702;23.312;2023-10-13T03:37:35;12.30;65.90
80695;DHT22;70059;42.702;23.312;2023-10-13T03:40:11;12.40;66.00
80695;DHT22;70059;42.702;23.312;2023-10-13T03:42:56;12.40;65.60
80695;DHT22;70059;42.702;23.312;2023-10-13T03:45:44;12.30;65.80
80695;DHT22;70059;42.702;23.312;2023-10-13T03:48:15;12.30;66.60
80695;DHT22;70059;42.702;23.312;2023-10-13T03:51:02;12.70;63.70
80695;DHT22;70059;42.702;23.312;2023-10-13T03:53:41;12.70;64.00
80695;DHT22;70059;42.702;23.312;2023-10-13T03:56:20;12.40;64.70
80695;DHT22;70059;42.702;23.312;2023-10-13T03:58:53;12.10;67.20
80695;DHT22;70059;42.702;23.312;2023-10-13T04:01:25;12.00;66.90
80695;DHT22;70059;42.702;23.312;2023-10-13T04:03:58;11.90;67.00
80695;DHT22;70059;42.702;23.312;2023-10-13T04:06:38;11.90;65.70
80695;DHT22;70059;42.702;23.312;2023-10-13T04:09:22;11.90;66.40
80695;DHT22;70059;42.702;23.312;2023-10-13T04:11:53;12.00;66.60
80695;DHT22;70059;42.702;23.312;2023-10-13T04:14:31;12.10;66.10
80695;DHT22;70059;42.702;23.312;2023-10-13T04:17:16;12.20;65.10
80695;DHT22;70059;42.702;23.312;2023-10-13T04:19:54;12.30;64.90
80695;DHT22;70059;42.702;23.312;2023-10-13T04:25:13;12.40;64.50
80695;DHT22;70059;42.702;23.312;2023-10-13T04:28:10;12.40;63.50
80695;DHT22;70059;42.702;23.312;2023-10-13T04:30:49;12.40;63.70
80695;DHT22;70059;42.702;23.312;2023-10-13T04:33:23;12.40;63.70
80695;DHT22;70059;42.702;23.312;2023-10-13T04:36:12;12.40;63.90
80695;DHT22;70059;42.702;23.312;2023-10-13T04:38:59;12.40;63.60
80695;DHT22;70059;42.702;23.312;2023-10-13T04:44:02;12.40;63.50
80695;DHT22;70059;42.702;23.312;2023-10-13T04:46:47;12.40;64.10
80695;DHT22;70059;42.702;23.312;2023-10-13T04:54:22;12.50;63.60
80695;DHT22;70059;42.702;23.312;2023-10-13T04:57:06;12.50;63.90
80695;DHT22;70059;42.702;23.312;2023-10-13T04:59:53;12.60;63.50
80695;DHT22;70059;42.702;23.312;2023-10-13T05:02:40;12.60;63.50
80695;DHT22;70059;42.702;23.312;2023-10-13T05:05:14;12.50;62.80
80695;DHT22;70059;42.702;23.312;2023-10-13T05:12:56;12.70;62.60
80695;DHT22;70059;42.702;23.312;2023-10-13T05:15:52;12.70;61.90
80695;DHT22;70059;42.702;23.312;2023-10-13T05:18:37;12.70;61.90
80695;DHT22;70059;42.702;23.312;2023-10-13T05:21:22;12.70;62.60
80695;DHT22;70059;42.702;23.312;2023-10-13T05:26:34;12.90;60.70
80695;DHT22;70059;42.702;23.312;2023-10-13T05:29:19;12.90;60.30
80695;DHT22;70059;42.702;23.312;2023-10-13T05:32:03;12.90;60.50
80695;DHT22;70059;42.702;23.312;2023-10-13T05:34:47;13.00;60.70
80695;DHT22;70059;42.702;23.312;2023-10-13T05:37:31;13.10;60.50
80695;DHT22;70059;42.702;23.312;2023-10-13T05:40:34;13.10;60.30
80695;DHT22;70059;42.702;23.312;2023-10-13T05:43:18;13.20;60.00
80695;DHT22;70059;42.702;23.312;2023-10-13T05:46:05;13.20;61.30
80695;DHT22;70059;42.702;23.312;2023-10-13T05:49:02;13.20;59.40
80695;DHT22;70059;42.702;23.312;2023-10-13T05:51:34;13.30;59.40
80695;DHT22;70059;42.702;23.312;2023-10-13T05:54:19;13.40;59.90
80695;DHT22;70059;42.702;23.312;2023-10-13T05:57:03;13.40;59.20
80695;DHT22;70059;42.702;23.312;2023-10-13T05:59:47;13.50;58.70
80695;DHT22;70059;42.702;23.312;2023-10-13T06:02:32;13.60;58.40
80695;DHT22;70059;42.702;23.312;2023-10-13T06:05:16;13.60;58.10
80695;DHT22;70059;42.702;23.312;2023-10-13T06:10:49;13.90;57.80
80695;DHT22;70059;42.702;23.312;2023-10-13T06:13:33;13.90;57.80
80695;DHT22;70059;42.702;23.312;2023-10-13T06:16:19;14.00;57.50
80695;DHT22;70059;42.702;23.312;2023-10-13T06:19:03;14.00;57.50
80695;DHT22;70059;42.702;23.312;2023-10-13T06:21:47;14.10;57.00
80695;DHT22;70059;42.702;23.312;2023-10-13T06:24:32;14.20;56.80
80695;DHT22;70059;42.702;23.312;2023-10-13T06:27:16;14.40;56.50
80695;DHT22;70059;42.702;23.312;2023-10-13T06:30:02;14.60;55.40
80695;DHT22;70059;42.702;23.312;2023-10-13T06:32:30;14.80;54.40
80695;DHT22;70059;42.702;23.312;2023-10-13T06:34:57;15.00;53.40
80695;DHT22;70059;42.702;23.312;2023-10-13T06:37:25;15.30;52.20
80695;DHT22;70059;42.702;23.312;2023-10-13T06:40:08;15.70;51.00
80695;DHT22;70059;42.702;23.312;2023-10-13T06:42:47;16.20;50.10
80695;DHT22;70059;42.702;23.312;2023-10-13T06:47:48;17.10;46.80
80695;DHT22;70059;42.702;23.312;2023-10-13T06:50:24;17.60;45.90
80695;DHT22;70059;42.702;23.312;2023-10-13T06:52:51;18.10;44.00
80695;DHT22;70059;42.702;23.312;2023-10-13T06:55:20;18.50;42.90
80695;DHT22;70059;42.702;23.312;2023-10-13T06:58:01;18.80;41.30
80695;DHT22;70059;42.702;23.312;2023-10-13T07:00:27;19.20;40.80
80695;DHT22;70059;42.702;23.312;2023-10-13T07:03:01;19.60;40.30
80695;DHT22;70059;42.702;23.312;2023-10-13T07:05:46;19.90;38.60
80695;DHT22;70059;42.702;23.312;2023-10-13T07:08:17;20.40;37.80
80695;DHT22;70059;42.702;23.312;2023-10-13T07:11:08;20.80;36.60
80695;DHT22;70059;42.702;23.312;2023-10-13T07:14:04;21.20;35.40
80695;DHT22;70059;42.702;23.312;2023-10-13T07:17:08;21.70;34.10
80695;DHT22;70059;42.702;23.312;2023-10-13T07:19:34;22.20;33.10
80695;DHT22;70059;42.702;23.312;2023-10-13T07:22:01;22.60;31.60
80695;DHT22;70059;42.702;23.312;2023-10-13T07:24:53;23.00;30.70
80695;DHT22;70059;42.702;23.312;2023-10-13T07:27:22;23.50;30.00
80695;DHT22;70059;42.702;23.312;2023-10-13T07:29:53;23.80;29.40
80695;DHT22;70059;42.702;23.312;2023-10-13T07:32:39;24.00;28.70
80695;DHT22;70059;42.702;23.312;2023-10-13T07:35:20;24.20;29.00
80695;DHT22;70059;42.702;23.312;2023-10-13T07:37:50;24.70;28.00
80695;DHT22;70059;42.702;23.312;2023-10-13T07:46:16;25.70;26.30
80695;DHT22;70059;42.702;23.312;2023-10-13T07:48:42;26.00;26.00
80695;DHT22;70059;42.702;23.312;2023-10-13T07:54:42;25.90;25.70
80695;DHT22;70059;42.702;23.312;2023-10-13T08:00:01;25.70;26.10
80695;DHT22;70059;42.702;23.312;2023-10-13T08:03:01;25.80;26.40
80695;DHT22;70059;42.702;23.312;2023-10-13T08:05:39;26.10;26.10
80695;DHT22;70059;42.702;23.312;2023-10-13T08:10:53;26.90;24.90
80695;DHT22;70059;42.702;23.312;2023-10-13T08:13:22;27.30;24.50
80695;DHT22;70059;42.702;23.312;2023-10-13T08:15:49;27.90;23.80
80695;DHT22;70059;42.702;23.312;2023-10-13T08:18:19;28.40;23.20
80695;DHT22;70059;42.702;23.312;2023-10-13T08:21:02;28.90;22.50
80695;DHT22;70059;42.702;23.312;2023-10-13T08:23:32;29.30;21.40
80695;DHT22;70059;42.702;23.312;2023-10-13T08:26:17;29.70;21.40
80695;DHT22;70059;42.702;23.312;2023-10-13T08:29:02;29.70;21.20
80695;DHT22;70059;42.702;23.312;2023-10-13T08:31:51;29.40;21.70
80695;DHT22;70059;42.702;23.312;2023-10-13T08:34:32;29.20;21.90
80695;DHT22;70059;42.702;23.312;2023-10-13T08:37:27;29.10;22.40
80695;DHT22;70059;42.702;23.312;2023-10-13T08:39:56;29.40;21.30
80695;DHT22;70059;42.702;23.312;2023-10-13T08:42:38;29.80;20.70
80695;DHT22;70059;42.702;23.312;2023-10-13T08:45:15;30.20;20.50
80695;DHT22;70059;42.702;23.312;2023-10-13T08:48:00;30.70;19.60
80695;DHT22;70059;42.702;23.312;2023-10-13T08:53:21;29.90;20.60
80695;DHT22;70059;42.702;23.312;2023-10-13T08:56:03;29.60;21.20
80695;DHT22;70059;42.702;23.312;2023-10-13T08:58:49;29.60;22.40
80695;DHT22;70059;42.702;23.312;2023-10-13T09:01:23;30.50;20.80
80695;DHT22;70059;42.702;23.312;2023-10-13T09:04:09;31.10;20.90
80695;DHT22;70059;42.702;23.312;2023-10-13T09:06:59;31.90;19.30
80695;DHT22;70059;42.702;23.312;2023-10-13T09:09:25;32.60;18.40
80695;DHT22;70059;42.702;23.312;2023-10-13T09:12:13;33.00;17.40
80695;DHT22;70059;42.702;23.312;2023-10-13T09:14:41;33.60;16.80
80695;DHT22;70059;42.702;23.312;2023-10-13T09:17:16;34.50;16.00
80695;DHT22;70059;42.702;23.312;2023-10-13T09:19:51;35.50;15.50
80695;DHT22;70059;42.702;23.312;2023-10-13T09:22:24;35.80;15.20
80695;DHT22;70059;42.702;23.312;2023-10-13T09:24:58;35.90;14.20
80695;DHT22;70059;42.702;23.312;2023-10-13T09:27:29;36.00;14.60
80695;DHT22;70059;42.702;23.312;2023-10-13T09:30:02;36.20;14.30
80695;DHT22;70059;42.702;23.312;2023-10-13T09:33:01;35.80;14.40
80695;DHT22;70059;42.702;23.312;2023-10-13T09:35:28;35.10;15.10
80695;DHT22;70059;42.702;23.312;2023-10-13T09:38:00;35.10;15.60
80695;DHT22;70059;42.702;23.312;2023-10-13T09:40:29;34.50;16.00
80695;DHT22;70059;42.702;23.312;2023-10-13T09:42:59;34.50;16.90
80695;DHT22;70059;42.702;23.312;2023-10-13T09:45:32;34.50;16.00
80695;DHT22;70059;42.702;23.312;2023-10-13T09:53:31;34.00;17.50
80695;DHT22;70059;42.702;23.312;2023-10-13T09:56:05;33.70;18.40
80695;DHT22;70059;42.702;23.312;2023-10-13T09:59:14;33.50;18.00
80695;DHT22;70059;42.702;23.312;2023-10-13T10:01:57;34.10;18.30
80695;DHT22;70059;42.702;23.312;2023-10-13T10:04:38;34.50;16.80
80695;DHT22;70059;42.702;23.312;2023-10-13T10:07:40;35.10;16.80
80695;DHT22;70059;42.702;23.312;2023-10-13T10:10:21;35.40;14.80
80695;DHT22;70059;42.702;23.312;2023-10-13T10:13:07;36.50;14.60
80695;DHT22;70059;42.702;23.312;2023-10-13T10:15:46;37.10;14.20
80695;DHT22;70059;42.702;23.312;2023-10-13T10:21:39;37.70;14.10
80695;DHT22;70059;42.702;23.312;2023-10-13T10:24:22;38.20;12.10
80695;DHT22;70059;42.702;23.312;2023-10-13T10:27:00;38.50;11.80
80695;DHT22;70059;42.702;23.312;2023-10-13T10:29:33;38.70;12.00
80695;DHT22;70059;42.702;23.312;2023-10-13T10:41:29;40.30;10.10
80695;DHT22;70059;42.702;23.312;2023-10-13T10:44:12;40.00;10.20
80695;DHT22;70059;42.702;23.312;2023-10-13T10:46:41;39.80;11.20
80695;DHT22;70059;42.702;23.312;2023-10-13T10:49:09;39.30;10.50
80695;DHT22;70059;42.702;23.312;2023-10-13T10:51:40;38.30;10.70
80695;DHT22;70059;42.702;23.312;2023-10-13T10:54:18;38.10;10.90
80695;DHT22;70059;42.702;23.312;2023-10-13T10:56:46;38.00;11.70
80695;DHT22;70059;42.702;23.312;2023-10-13T10:59:18;37.90;11.70
80695;DHT22;70059;42.702;23.312;2023-10-13T11:01:46;37.80;12.80
80695;DHT22;70059;42.702;23.312;2023-10-13T11:04:18;37.40;12.60
80695;DHT22;70059;42.702;23.312;2023-10-13T11:06:54;36.90;13.30
80695;DHT22;70059;42.702;23.312;2023-10-13T11:09:34;36.40;13.40
80695;DHT22;70059;42.702;23.312;2023-10-13T11:12:15;37.00;12.50
80695;DHT22;70059;42.702;23.312;2023-10-13T11:15:04;37.00;11.90
80695;DHT22;70059;42.702;23.312;2023-10-13T11:17:51;37.80;11.90
80695;DHT22;70059;42.702;23.312;2023-10-13T11:20:21;38.70;11.00
80695;DHT22;70059;42.702;23.312;2023-10-13T11:23:00;39.10;10.00
80695;DHT22;70059;42.702;23.312;2023-10-13T11:25:37;39.20;9.60
80695;DHT22;70059;42.702;23.312;2023-10-13T11:28:16;39.40;10.00
80695;DHT22;70059;42.702;23.312;2023-10-13T11:30:56;39.50;9.80
80695;DHT22;70059;42.702;23.312;2023-10-13T11:33:26;40.20;10.00
80695;DHT22;70059;42.702;23.312;2023-10-13T11:35:54;40.60;9.10
80695;DHT22;70059;42.702;23.312;2023-10-13T11:38:31;40.70;9.30
80695;DHT22;70059;42.702;23.312;2023-10-13T11:41:05;40.30;9.90
80695;DHT22;70059;42.702;23.312;2023-10-13T11:43:32;40.10;10.30
80695;DHT22;70059;42.702;23.312;2023-10-13T11:46:05;39.50;10.40
80695;DHT22;70059;42.702;23.312;2023-10-13T11:48:34;39.80;10.00
80695;DHT22;70059;42.702;23.312;2023-10-13T11:51:05;40.10;9.30
80695;DHT22;70059;42.702;23.312;2023-10-13T11:53:38;39.90;8.90
80695;DHT22;70059;42.702;23.312;2023-10-13T11:56:05;39.60;10.00
80695;DHT22;70059;42.702;23.312;2023-10-13T11:58:40;39.30;10.40
80695;DHT22;70059;42.702;23.312;2023-10-13T12:01:07;39.90;10.20
80695;DHT22;70059;42.702;23.312;2023-10-13T12:06:14;40.70;9.30
80695;DHT22;70059;42.702;23.312;2023-10-13T12:11:28;41.30;8.30
80695;DHT22;70059;42.702;23.312;2023-10-13T12:13:57;41.50;9.30
80695;DHT22;70059;42.702;23.312;2023-10-13T12:18:51;41.00;8.60
80695;DHT22;70059;42.702;23.312;2023-10-13T12:21:20;40.40;9.20
80695;DHT22;70059;42.702;23.312;2023-10-13T12:23:47;39.80;8.90
80695;DHT22;70059;42.702;23.312;2023-10-13T12:26:13;39.00;9.50
80695;DHT22;70059;42.702;23.312;2023-10-13T12:28:47;38.50;10.60
80695;DHT22;70059;42.702;23.312;2023-10-13T12:31:31;38.30;11.20
80695;DHT22;70059;42.702;23.312;2023-10-13T12:33:57;38.30;10.40
80695;DHT22;70059;42.702;23.312;2023-10-13T12:36:32;38.10;10.50
80695;DHT22;70059;42.702;23.312;2023-10-13T12:39:06;38.20;10.70
80695;DHT22;70059;42.702;23.312;2023-10-13T12:41:32;38.10;11.50
80695;DHT22;70059;42.702;23.312;2023-10-13T12:44:16;38.20;10.40
80695;DHT22;70059;42.702;23.312;2023-10-13T12:47:14;38.10;12.20
80695;DHT22;70059;42.702;23.312;2023-10-13T12:49:59;38.30;10.40
80695;DHT22;70059;42.702;23.312;2023-10-13T12:52:40;38.60;10.70
80695;DHT22;70059;42.702;23.312;2023-10-13T12:57:40;39.10;10.60
80695;DHT22;70059;42.702;23.312;2023-10-13T13:00:10;39.50;10.20
80695;DHT22;70059;42.702;23.312;2023-10-13T13:02:46;39.60;9.70
80695;DHT22;70059;42.702;23.312;2023-10-13T13:05:13;39.50;10.00
80695;DHT22;70059;42.702;23.312;2023-10-13T13:07:40;39.50;10.00
80695;DHT22;70059;42.702;23.312;2023-10-13T13:10:14;39.60;8.90
80695;DHT22;70059;42.702;23.312;2023-10-13T13:12:57;39.40;8.80
80695;DHT22;70059;42.702;23.312;2023-10-13T13:15:24;39.20;8.80
80695;DHT22;70059;42.702;23.312;2023-10-13T13:17:49;38.80;10.60
80695;DHT22;70059;42.702;23.312;2023-10-13T13:20:18;38.70;10.50
80695;DHT22;70059;42.702;23.312;2023-10-13T13:22:55;38.90;10.70
80695;DHT22;70059;42.702;23.312;2023-10-13T13:25:21;38.80;9.90
80695;DHT22;70059;42.702;23.312;2023-10-13T13:27:56;38.90;10.40
80695;DHT22;70059;42.702;23.312;2023-10-13T13:30:24;38.90;10.80
80695;DHT22;70059;42.702;23.312;2023-10-13T13:32:56;38.90;10.50
80695;DHT22;70059;42.702;23.312;2023-10-13T13:35:24;38.80;10.20
80695;DHT22;70059;42.702;23.312;2023-10-13T13:37:54;38.80;8.80
80695;DHT22;70059;42.702;23.312;2023-10-13T13:40:29;38.90;8.60
80695;DHT22;70059;42.702;23.312;2023-10-13T13:43:00;37.90;9.70
80695;DHT22;70059;42.702;23.312;2023-10-13T13:47:55;37.00;10.10
80695;DHT22;70059;42.702;23.312;2023-10-13T13:50:25;36.40;12.00
80695;DHT22;70059;42.702;23.312;2023-10-13T13:52:56;35.70;12.50
80695;DHT22;70059;42.702;23.312;2023-10-13T13:57:53;34.70;13.50
80695;DHT22;70059;42.702;23.312;2023-10-13T14:00:21;34.10;14.40
80695;DHT22;70059;42.702;23.312;2023-10-13T14:03:13;33.40;15.40
80695;DHT22;70059;42.702;23.312;2023-10-13T14:06:00;32.80;16.30
80695;DHT22;70059;42.702;23.312;2023-10-13T14:08:27;32.20;17.00
80695;DHT22;70059;42.702;23.312;2023-10-13T14:10:53;31.40;17.80
80695;DHT22;70059;42.702;23.312;2023-10-13T14:13:41;31.10;17.60
80695;DHT22;70059;42.702;23.312;2023-10-13T14:16:18;30.70;18.10
80695;DHT22;70059;42.702;23.312;2023-10-13T14:18:50;30.30;19.60
80695;DHT22;70059;42.702;23.312;2023-10-13T14:21:17;30.10;19.30
80695;DHT22;70059;42.702;23.312;2023-10-13T14:23:45;29.70;18.80
80695;DHT22;70059;42.702;23.312;2023-10-13T14:26:14;29.40;19.70
80695;DHT22;70059;42.702;23.312;2023-10-13T14:28:41;29.10;19.10
80695;DHT22;70059;42.702;23.312;2023-10-13T14:31:32;28.90;19.90
80695;DHT22;70059;42.702;23.312;2023-10-13T14:33:58;28.60;20.20
80695;DHT22;70059;42.702;23.312;2023-10-13T14:36:25;28.50;20.30
80695;DHT22;70059;42.702;23.312;2023-10-13T14:38:55;28.40;20.60
80695;DHT22;70059;42.702;23.312;2023-10-13T14:41:22;28.20;21.20
80695;DHT22;70059;42.702;23.312;2023-10-13T14:43:51;28.10;20.60
80695;DHT22;70059;42.702;23.312;2023-10-13T14:46:18;27.90;22.60
80695;DHT22;70059;42.702;23.312;2023-10-13T14:48:48;27.60;22.00
80695;DHT22;70059;42.702;23.312;2023-10-13T14:51:14;27.50;21.80
80695;DHT22;70059;42.702;23.312;2023-10-13T14:53:43;27.20;23.20
80695;DHT22;70059;42.702;23.312;2023-10-13T14:56:12;27.10;22.50
80695;DHT22;70059;42.702;23.312;2023-10-13T14:58:39;27.10;23.60
80695;DHT22;70059;42.702;23.312;2023-10-13T15:01:22;26.90;23.70
80695;DHT22;70059;42.702;23.312;2023-10-13T15:03:49;26.70;23.60
80695;DHT22;70059;42.702;23.312;2023-10-13T15:06:26;26.60;24.20
80695;DHT22;70059;42.702;23.312;2023-10-13T15:08:59;26.50;24.30
80695;DHT22;70059;42.702;23.312;2023-10-13T15:11:26;26.50;24.80
80695;DHT22;70059;42.702;23.312;2023-10-13T15:13:56;26.30;24.80
80695;DHT22;70059;42.702;23.312;2023-10-13T15:16:25;26.30;25.20
80695;DHT22;70059;42.702;23.312;2023-10-13T15:18:53;26.20;25.20
80695;DHT22;70059;42.702;23.312;2023-10-13T15:21:23;26.10;26.00
80695;DHT22;70059;42.702;23.312;2023-10-13T15:23:54;26.00;26.00
80695;DHT22;70059;42.702;23.312;2023-10-13T15:26:25;25.80;25.90
80695;DHT22;70059;42.702;23.312;2023-10-13T15:28:51;25.70;26.20
80695;DHT22;70059;42.702;23.312;2023-10-13T15:31:21;25.60;26.10
80695;DHT22;70059;42.702;23.312;2023-10-13T15:34:03;25.50;26.00
80695;DHT22;70059;42.702;23.312;2023-10-13T15:36:33;25.40;26.40
80695;DHT22;70059;42.702;23.312;2023-10-13T15:38:59;25.30;26.50
80695;DHT22;70059;42.702;23.312;2023-10-13T15:41:27;25.20;27.50
80695;DHT22;70059;42.702;23.312;2023-10-13T15:43:54;25.10;28.10
80695;DHT22;70059;42.702;23.312;2023-10-13T15:46:21;25.00;27.90
80695;DHT22;70059;42.702;23.312;2023-10-13T15:48:50;24.90;28.10
80695;DHT22;70059;42.702;23.312;2023-10-13T15:51:16;24.70;28.40
80695;DHT22;70059;42.702;23.312;2023-10-13T15:53:42;24.60;28.90
80695;DHT22;70059;42.702;23.312;2023-10-13T15:56:09;24.50;29.20
80695;DHT22;70059;42.702;23.312;2023-10-13T15:58:47;24.40;29.50
80695;DHT22;70059;42.702;23.312;2023-10-13T16:01:13;24.20;29.20
80695;DHT22;70059;42.702;23.312;2023-10-13T16:03:45;24.10;28.50
80695;DHT22;70059;42.702;23.312;2023-10-13T16:06:18;24.00;28.50
80695;DHT22;70059;42.702;23.312;2023-10-13T16:08:45;23.80;28.90
80695;DHT22;70059;42.702;23.312;2023-10-13T16:11:14;23.60;28.70
80695;DHT22;70059;42.702;23.312;2023-10-13T16:13:41;23.50;29.20
80695;DHT22;70059;42.702;23.312;2023-10-13T16:16:17;23.40;28.30
80695;DHT22;70059;42.702;23.312;2023-10-13T16:18:47;23.50;27.90
80695;DHT22;70059;42.702;23.312;2023-10-13T16:21:13;23.40;28.60
80695;DHT22;70059;42.702;23.312;2023-10-13T16:23:43;23.30;28.30
80695;DHT22;70059;42.702;23.312;2023-10-13T16:26:11;23.30;28.70
80695;DHT22;70059;42.702;23.312;2023-10-13T16:28:37;23.20;28.60
80695;DHT22;70059;42.702;23.312;2023-10-13T16:31:04;23.30;28.20
80695;DHT22;70059;42.702;23.312;2023-10-13T16:33:31;23.30;28.90
80695;DHT22;70059;42.702;23.312;2023-10-13T16:35:58;23.30;28.90
80695;DHT22;70059;42.702;23.312;2023-10-13T16:38:24;23.20;28.80
80695;DHT22;70059;42.702;23.312;2023-10-13T16:40:53;23.20;29.60
80695;DHT22;70059;42.702;23.312;2023-10-13T16:43:20;23.20;29.90
80695;DHT22;70059;42.702;23.312;2023-10-13T16:45:45;23.20;30.30
80695;DHT22;70059;42.702;23.312;2023-10-13T16:48:11;23.20;31.40
80695;DHT22;70059;42.702;23.312;2023-10-13T16:50:45;23.20;30.50
80695;DHT22;70059;42.702;23.312;2023-10-13T16:53:14;23.20;30.30
80695;DHT22;70059;42.702;23.312;2023-10-13T16:55:40;23.10;30.60
80695;DHT22;70059;42.702;23.312;2023-10-13T16:58:10;23.00;29.00
80695;DHT22;70059;42.702;23.312;2023-10-13T17:00:39;22.90;31.60
80695;DHT22;70059;42.702;23.312;2023-10-13T17:03:09;22.70;32.20
80695;DHT22;70059;42.702;23.312;2023-10-13T17:05:45;22.50;32.70
80695;DHT22;70059;42.702;23.312;2023-10-13T17:08:17;22.40;33.60
80695;DHT22;70059;42.702;23.312;2023-10-13T17:10:42;22.30;33.60
80695;DHT22;70059;42.702;23.312;2023-10-13T17:13:08;22.30;33.60
80695;DHT22;70059;42.702;23.312;2023-10-13T17:15:35;22.30;34.00
80695;DHT22;70059;42.702;23.312;2023-10-13T17:18:03;22.20;31.70
80695;DHT22;70059;42.702;23.312;2023-10-13T17:20:37;21.90;31.50